Virginia Peak (RGX), Nevada Weather observations

 Day   Time    Ave.   Ave.  Ave.  Vector  Max.   Total    Solar  
  of    of     Air    Rel.  Wind   Wind   Wind  Precip.   Rad.   
Year   Day     Temp.  Hum.  Speed  Dir.   Gust                   
2014   (PST)    F      %     mph   deg.    mph    in.     W/m2  
----------------------------------------------------------------
 262    4:15  999.0   999  999.0   999   999.0   999.00     999
 262    4:30  999.0   999  999.0   999   999.0   999.00     999
 262    4:45  999.0   999  999.0   999   999.0   999.00     999
 262    5:00  999.0   999  999.0   999   999.0   999.00     999
 262    5:15   50.0    53   11.4     3     2.8   999.00     999
 262    5:30   49.0    55    9.4    54   999.0   999.00     999
 262    5:45  999.0    55    9.6    41    13.8   999.00     999
 262    6:00  999.0   999    9.0    46    12.6   999.00     999
 262    6:15   51.0    49  999.0    47    13.8   999.00     999
 262    6:30   52.0    46  999.0    53    20.4   999.00     999
 262    6:45  999.0    49  999.0   999    16.8   999.00     999
 262    7:00   51.0    48  999.0    66    16.2   999.00     999
 262    7:15   52.0    48   17.4    39    18.0   999.00     999
 262    7:30   53.0    51   13.2    64    18.0   999.00     999
 262    7:45   53.0    48   11.4    46    13.8   999.00     999
 262    8:00   54.0    48   11.4    46    11.4   999.00     999
 262    8:15   54.0    49   12.6    51    13.8   999.00     999
 262    8:30  999.0    53   15.0    60   999.0   999.00     999
 262    8:45   52.0    59   10.2   218    15.6   999.00     999
 262    9:00   52.0    57   11.4    53    15.6   999.00     999
 262    9:15   53.0    54   10.2    48    14.0   999.00     999
 262    9:30  999.0    53   14.4    58    15.6   999.00     999
 262    9:45   53.0    52  999.0    64    15.6   999.00     999
 262   10:00   53.0    53   13.8    57    18.6   999.00     999
 262   10:15   55.0    49   18.6    63    18.6   999.00     999
 262   10:30   55.0    49   14.4    71    17.4   999.00     999
 262   10:45   56.0    48   15.6    49    19.2   999.00     999
 262   11:00  999.0   999   11.4    60    16.8   999.00     999
 262   11:15   56.0    49   16.8    48    21.6   999.00     999
 262   11:30   57.0    47   15.0    98    22.8   999.00     999
 262   11:45   57.0    47   12.6    59    20.4   999.00     999
 262   12:00   58.0    47   16.2    62    19.2   999.00     999
 262   12:15   58.0    46   19.2    59    23.4   999.00     999
 262   12:30   58.0    45   21.0   999    21.6   999.00     999
 262   12:45   59.0    45   19.8    68    23.4   999.00     999
 262   13:00   58.0    45   22.2    73    26.4   999.00     999
 262   13:15   58.0    45   22.8    68    27.6   999.00     999
 262   13:30  999.0   999  999.0   999   999.0   999.00     999
 262   13:45   59.0    44   22.2    62    24.6   999.00     999
 262   14:00   59.0    43   20.4    68    24.6   999.00     999
 262   14:15   60.0    42   20.4    60    22.8   999.00     999
 262   14:30   60.0    42   20.4    64    23.4   999.00     999
 262   14:45   60.0    42   22.2    59    24.0   999.00     999
 262   15:00   60.0   999   22.0    59   999.0   999.00     999
 262   15:15   60.0    41   21.0    58    23.4   999.00     999
 262   15:30   61.0   999   16.2   999    20.4   999.00     999
 262   15:45  999.0    43   13.2    50    18.0   999.00     999
 262   16:00   61.0    41   11.4    41    17.4   999.00     999
 262   16:15   60.0    41   14.4    59    17.4   999.00     999
 262   16:30   60.0    41   14.4   999    17.4   999.00     999
 262   16:45   60.0    41   11.4    61    15.0   999.00     999
 262   17:00   60.0    40   11.4    60    13.8   999.00     999
 262   17:15   60.0    40   10.2    63    12.6   999.00     999
 262   17:30   60.0    39   10.8    53    12.0   999.00     999
 262   17:45   60.0     7   12.0    61    12.6   999.00     999
 262   18:00   60.0   999  999.0    58    12.0   999.00     999
 262   18:15   59.0   999    7.2    42    10.2   999.00     999
 262   18:30   59.0    38    7.2    41     9.6   999.00     999
 262   18:45  999.0   999  999.0   999   999.0   999.00     999
 262   19:00   59.0    39    6.6   999    13.2   999.00     999
 262   19:15   59.0    40    7.2   999    23.0   999.00     999
 262   19:30  999.0    40    4.8    33    12.0   999.00     999
 262   19:45   59.0    41   10.2     1    13.2   999.00     999
 262   20:00   58.0    41   15.6   999    22.6   999.00     999
 262   20:15   58.0    42   14.4    42    18.0   999.00     999
 262   20:30   58.0    41   17.4    48    18.0   999.00     999
 262   20:45   58.0    41   18.0    46    19.2   999.00     999
 262   21:00   58.0    41   17.4    61    19.8   999.00     999
 262   21:15   58.0    40   16.2   999    21.0   999.00     999
 262   21:30   58.0    40   18.0    50    19.2   999.00     999
 262   21:45   58.0   999   18.6    50    20.4   999.00     999
 262   22:00   58.0    40   22.2    61    22.2   999.00     999
 262   22:15   58.0    40   19.8    50    24.0   999.00     999
 262   22:30   58.0    40   18.0    54    22.2   999.00     999
 262   22:45   57.0    33   16.2    33    22.8   999.00     999
 262   23:00   57.0    41   18.6    36    22.2   999.00     999
 262   23:15   57.0    41   18.0    36    21.6   999.00     999
 262   23:30   57.0    41   19.8    39    21.6   999.00     999
 262   23:45  122.0    41   18.0    22    22.2   999.00     999
 263    0:00   57.0    41   19.8    39    22.2   999.00     999
 263    0:15   57.0    40   17.4    42    22.2   999.00     999
 263    0:30   56.0    41   17.4    24    20.4   999.00     999
 263    0:45   57.0    41   23.8    39    21.0   999.00     999
 263    1:00   56.0    41   16.8    36    22.2   999.00     999
 263    1:15   56.0    41   16.2    43    20.4   999.00     999
 263    1:30   56.0    41   16.2    21    20.4   999.00     999
 263    1:45   56.0    41   14.4    41   999.0   999.00     999
 263    2:00   56.0    41   12.0    45    19.2   999.00     999
 263    2:15   55.0    41   10.8    20    17.4   999.00     999
 263    2:30   55.0    42   15.0    24    16.8   999.00     999
 263    2:45   55.0    41   12.0    34    18.6   999.00     999
 263    3:00  999.0   999  999.0   999   999.0   999.00     999
 263    3:15   55.0    41   16.2    47    18.0   999.00     999
 263    3:30   55.0    42   13.8    39    18.0   999.00     999
 263    3:45   54.0    42   15.6    33    18.6   999.00     999
 263    4:00   55.0    42   16.2    51    17.4   999.00     999

Return to Virginia Peak (RGX) graphs page.


Western Regional Climate Center,wrcc@dri.edu